METAR Data
IDs: Format: Raw Decoded Include TAF

Data at: 0635 UTC 23 Feb 2019

KCVB 230615Z AUTO 09005KT 1SM BR OVC003 14/14 A2983 RMK AO2 T01420142
KCVB 230555Z AUTO 11006KT 1SM BR OVC003 14/14 A2984 RMK AO2 T01430143 10180 20143 402030108
KCVB 230535Z AUTO 09007KT 1 1/4SM BR OVC003 14/14 A2984 RMK AO2 T01440144
KCVB 230515Z AUTO 10008KT 1SM BR OVC003 15/15 A2985 RMK AO2 T01450145
KCVB 230455Z AUTO 10008KT 1 1/4SM BR OVC003 15/15 A2985 RMK AO2 T01450145
KCVB 230435Z AUTO 10009KT 2 1/2SM BR OVC003 15/15 A2986 RMK AO2 T01470145
KCVB 230415Z AUTO 11010KT 5SM BR OVC005 15/15 A2986 RMK AO2 T01510146
KCVB 230355Z AUTO 10010KT 7SM OVC007 16/15 A2986 RMK AO2 T01550146
KCVB 230335Z AUTO 10010KT 7SM OVC007 16/15 A2986 RMK AO2 T01560145
KCVB 230315Z AUTO 09008KT 7SM OVC009 16/15 A2986 RMK AO2 T01580145
KCVB 230255Z AUTO 09010G15KT 10SM OVC009 17/14 A2986 RMK AO2 T01650140
KCVB 230235Z AUTO 10007KT 10SM OVC011 17/14 A2987 RMK AO2 T01660140
KCVB 230215Z AUTO 10006KT 10SM OVC013 17/14 A2987 RMK AO2 T01660140
KCVB 230155Z AUTO 10005KT 10SM OVC015 17/14 A2987 RMK AO2 T01660140
KCVB 230135Z AUTO 11008KT 10SM OVC017 17/14 A2987 RMK AO2 T01680136
KCVB 230115Z AUTO 13006KT 10SM OVC019 17/13 A2987 RMK AO2 T01700133
KCVB 230055Z AUTO 12006KT 10SM OVC019 17/13 A2986 RMK AO2 T01700131
KCVB 230035Z AUTO 13006KT 7SM OVC019 17/13 A2986 RMK AO2 T01730131
KCVB 230015Z AUTO 12006KT 7SM OVC019 18/13 A2985 RMK AO2 T01760130
KCVB 222355Z AUTO 11007KT 7SM OVC019 18/13 A2984 RMK AO2 T01800131 10203 20165
KCVB 222335Z AUTO 12007KT 7SM OVC021 19/13 A2984 RMK AO2 T01850130
KCVB 222315Z AUTO 12009KT 7SM OVC023 19/13 A2985 RMK AO2 T01860130
KCVB 222255Z AUTO 12007KT 10SM OVC025 19/13 A2985 RMK AO2 T01930133
KCVB 222235Z AUTO 12004KT 10SM OVC023 20/13 A2986 RMK AO2 T01950132
KCVB 222215Z AUTO 11004KT 10SM OVC023 20/13 A2986 RMK AO2 T01980130
KCVB 222155Z AUTO 00000KT 10SM OVC025 20/13 A2986 RMK AO2 T02000129
KCVB 222135Z AUTO 17003KT 10SM SCT021 OVC028 20/13 A2987 RMK AO2 T02000129
KCVB 222115Z AUTO 00000KT 10SM OVC021 20/13 A2987 RMK AO2 T01950128
KCVB 222055Z AUTO 11004KT 10SM OVC021 19/13 A2987 RMK AO2 T01940128
KCVB 222035Z AUTO 00000KT 10SM OVC021 20/13 A2987 RMK AO2 T02010128
KCVB 222015Z AUTO 00000KT 10SM OVC021 20/13 A2988 RMK AO2 T01980128
KCVB 221955Z AUTO 00000KT 10SM BKN021 OVC026 20/13 A2990 RMK AO2 T01980129
KCVB 221935Z AUTO 00000KT 10SM SCT018 OVC025 19/13 A2991 RMK AO2 T01900128
KCVB 221915Z AUTO 00000KT 10SM BKN014 OVC023 18/13 A2993 RMK AO2 T01770125
KCVB 221855Z AUTO 14003KT 10SM OVC014 18/12 A2994 RMK AO2 T01770124
KCVB 221835Z AUTO 00000KT 10SM OVC012 17/12 A2995 RMK AO2 T01740122
KCVB 221815Z AUTO 00000KT 7SM OVC010 17/13 A2995 RMK AO2 T01740131
KCVB 221755Z AUTO 00000KT 7SM OVC008 17/13 A2997 RMK AO2 T01650133 10165 20110
KCVB 221735Z AUTO 13004KT 5SM BR OVC006 16/14 A2997 RMK AO2 T01550137
KCVB 221715Z AUTO 08003KT 5SM BR OVC006 15/13 A2998 RMK AO2 T01490131
KCVB 221655Z AUTO 09004KT 4SM BR OVC004 14/13 A2999 RMK AO2 T01400131
KCVB 221635Z AUTO 00000KT 3SM BR OVC004 13/13 A2999 RMK AO2 T01320131
KCVB 221615Z AUTO 10003KT 2SM BR OVC002 13/13 A2999 RMK AO2 T01260126
KCVB 221555Z AUTO 09003KT 2SM BR OVC002 12/12 A2999 RMK AO2 T01220122
KCVB 221535Z AUTO 00000KT 1 1/4SM BR OVC002 12/12 A2999 RMK AO2 T01200120
KCVB 221515Z AUTO 00000KT 1SM BR OVC002 12/12 A2999 RMK AO2 T01160116
KCVB 221455Z AUTO 00000KT 3/4SM BR OVC002 12/12 A2999 RMK AO2 T01150115
KCVB 221435Z AUTO 00000KT 3/4SM BR OVC002 12/12 A2999 RMK AO2 T01150115
KCVB 221415Z AUTO 00000KT 3/4SM BR OVC002 11/11 A2998 RMK AO2 T01130113
KCVB 221355Z AUTO 00000KT 3/4SM BR OVC002 11/11 A2998 RMK AO2 T01130113
KCVB 221335Z AUTO 00000KT 1/2SM FG OVC002 11/11 A2997 RMK AO2 T01110111
KCVB 221315Z AUTO 00000KT 1SM BR OVC004 11/11 A2996 RMK AO2 T01110111
KCVB 221255Z AUTO 00000KT 1 1/2SM BR OVC004 11/11 A2996 RMK AO2 T01110111
KCVB 221235Z AUTO 00000KT 2 1/2SM BR OVC004 11/11 A2995 RMK AO2 T01110111
KCVB 221215Z AUTO 00000KT 3SM BR OVC004 11/11 A2995 RMK AO2 T01110110
KCVB 221155Z AUTO 00000KT 3SM BR OVC004 11/11 A2994 RMK AO2 T01110110 10125 20108
KCVB 221135Z AUTO 12003KT 5SM BR OVC004 11/11 A2993 RMK AO2 T01110108
KCVB 221115Z AUTO 10004KT 5SM BR OVC004 11/11 A2992 RMK AO2 T01110107
KCVB 221055Z AUTO 11005KT 7SM OVC004 11/11 A2993 RMK AO2 T01110106
KCVB 221035Z AUTO 00000KT 7SM OVC004 11/11 A2993 RMK AO2 T01110106
KCVB 221015Z AUTO 07005KT 7SM OVC004 11/11 A2992 RMK AO2 T01100106
KCVB 220955Z AUTO 09004KT 7SM OVC004 11/11 A2993 RMK AO2 T01100106
KCVB 220935Z AUTO 08005KT 7SM OVC004 11/11 A2993 RMK AO2 T01080106
KCVB 220915Z AUTO 11006KT 4SM BR OVC006 11/11 A2993 RMK AO2 T01100106
KCVB 220855Z AUTO 11006KT 4SM BR OVC010 11/10 A2993 RMK AO2 T01110102
KCVB 220835Z AUTO 10009KT 7SM OVC012 12/09 A2993 RMK AO2 T01170085
KCVB 220815Z AUTO 10009KT 10SM OVC012 12/08 A2993 RMK AO2 T01210080
KCVB 220755Z AUTO 08006KT 10SM OVC012 12/08 A2993 RMK AO2 T01210079
KCVB 220735Z AUTO 07008KT 10SM OVC012 12/08 A2993 RMK AO2 T01210079
KCVB 220715Z AUTO 07010KT 10SM OVC012 12/08 A2993 RMK AO2 T01220078
KCVB 220655Z AUTO 07008KT 10SM OVC014 12/08 A2994 RMK AO2 T01230075
KCVB 220635Z AUTO 06008KT 10SM OVC014 13/08 A2994 RMK AO2 T01250075
KCVB 220615Z AUTO 07007KT 10SM OVC014 13/08 A2995 RMK AO2 T01250075
KCVB 220555Z AUTO 05004KT 10SM OVC014 13/08 A2996 RMK AO2 T01250075 10144 20125 401600066
KCVB 220535Z AUTO 07008KT 10SM OVC014 13/07 A2996 RMK AO2 T01260073
KCVB 220515Z AUTO 06007KT 10SM OVC014 13/07 A2996 RMK AO2 T01260071
KCVB 220455Z AUTO 07007KT 10SM OVC016 13/07 A2996 RMK AO2 T01270071
KCVB 220435Z AUTO 07007KT 10SM BKN016 OVC031 13/07 A2995 RMK AO2 T01280070
KCVB 220415Z AUTO 07006KT 10SM SCT016 OVC029 13/07 A2995 RMK AO2 T01300070
KCVB 220355Z AUTO 05006KT 10SM BKN018 OVC029 13/07 A2995 RMK AO2 T01300069
KCVB 220335Z AUTO 07007KT 10SM OVC018 13/07 A2996 RMK AO2 T01300069
KCVB 220315Z AUTO 08006KT 10SM OVC018 13/07 A2994 RMK AO2 T01310068
KCVB 220255Z AUTO 08005KT 10SM OVC018 13/07 A2993 RMK AO2 T01320070
KCVB 220235Z AUTO 08009KT 10SM OVC018 13/07 A2992 RMK AO2 T01320068
KCVB 220215Z AUTO 07007KT 10SM OVC018 14/07 A2991 RMK AO2 T01350069
KCVB 220155Z AUTO 09007KT 10SM SCT018 OVC028 13/07 A2990 RMK AO2 T01340070
KCVB 220135Z AUTO 07006KT 10SM OVC028 14/07 A2988 RMK AO2 T01350071
KCVB 220115Z AUTO 08009KT 10SM OVC028 14/07 A2987 RMK AO2 T01360071
KCVB 220055Z AUTO 09006KT 10SM OVC030 14/07 A2987 RMK AO2 T01370071
KCVB 220035Z AUTO 07010KT 10SM OVC030 14/07 A2985 RMK AO2 T01380071
KCVB 220015Z AUTO 08009KT 10SM OVC030 14/07 A2986 RMK AO2 T01400072
KCVB 212355Z AUTO 07011KT 10SM OVC032 15/07 A2986 RMK AO2 T01450071 10160 20143
KCVB 212335Z AUTO 07008KT 10SM OVC032 15/07 A2987 RMK AO2 T01470070
KCVB 212315Z AUTO 08009KT 10SM OVC034 15/07 A2986 RMK AO2 T01510073
KCVB 212255Z AUTO 08010G14KT 10SM OVC036 15/07 A2986 RMK AO2 T01510072
KCVB 212235Z AUTO 08010G15KT 10SM SCT030 OVC036 15/08 A2986 RMK AO2 T01510075
KCVB 212215Z AUTO 07009KT 10SM BKN030 OVC036 15/07 A2986 RMK AO2 T01520070
KCVB 212155Z AUTO 09011KT 10SM OVC036 15/07 A2985 RMK AO2 T01530069
KCVB 212135Z AUTO 09010KT 10SM OVC034 16/07 A2986 RMK AO2 T01550071
KCVB 212115Z AUTO 08010KT 10SM OVC032 16/07 A2987 RMK AO2 T01570065
KCVB 212055Z AUTO 09009KT 10SM OVC032 16/06 A2987 RMK AO2 T01580061
KCVB 212035Z AUTO 09007KT 10SM OVC034 16/06 A2988 RMK AO2 T01570061
KCVB 212015Z AUTO 07007KT 10SM OVC034 16/06 A2989 RMK AO2 T01570060
KCVB 211955Z AUTO 08005KT 10SM OVC034 15/06 A2991 RMK AO2 T01540058
KCVB 211935Z AUTO 08006KT 10SM OVC034 16/06 A2992 RMK AO2 T01580057
KCVB 211915Z AUTO 09005KT 10SM OVC034 15/06 A2992 RMK AO2 T01520060
KCVB 211855Z AUTO 10005KT 10SM OVC034 15/06 A2994 RMK AO2 T01470059